DLH205 MUHA-CYHZ
Flight info
| Callsign | DLH205 |
|---|---|
| Flight time | N/A |
| Altitude | 37000 |
| Route | ALMIT2 TANIA DCT 2930N07500W DCT 3530N07000W DCT ELERI PEGGY5 |
| Aircraft | A388/J-SADE2E3FGHIJ3J4J5M1RWXY/LB1D1 |
Departure
| Time | N/A |
|---|---|
| Airport | José Martí International Airport (MUHA) |
Arrival
| Time | 2026-05-04 23:36 |
|---|---|
| Airport | Halifax / Stanfield International Airport (CYHZ) |
| Time | Latitude | Longitude | Altitude | Speed | Heading |
|---|---|---|---|---|---|
| 2026-05-04 21:57 | 32.77513 | -73.38913 | 37103 ft | 600 kts | 30° |
| 2026-05-04 21:58 | 32.84449 | -73.33481 | 37093 ft | 601 kts | 30° |
| 2026-05-04 21:58 | 32.91418 | -73.28012 | 37092 ft | 602 kts | 30° |
| 2026-05-04 21:59 | 32.98363 | -73.22553 | 37093 ft | 602 kts | 30° |
| 2026-05-04 21:59 | 33.05305 | -73.17086 | 37091 ft | 602 kts | 30° |
| 2026-05-04 22:00 | 33.12249 | -73.11608 | 37078 ft | 603 kts | 30° |
| 2026-05-04 22:00 | 33.19222 | -73.06093 | 37078 ft | 603 kts | 30° |
| 2026-05-04 22:01 | 33.26167 | -73.00592 | 37079 ft | 603 kts | 30° |
| 2026-05-04 22:01 | 33.33108 | -72.95082 | 37081 ft | 603 kts | 30° |
| 2026-05-04 22:02 | 33.40075 | -72.89542 | 37083 ft | 603 kts | 30° |
| 2026-05-04 22:02 | 33.47016 | -72.84012 | 37083 ft | 603 kts | 30° |
| 2026-05-04 22:03 | 33.53961 | -72.78467 | 37086 ft | 603 kts | 30° |
| 2026-05-04 22:03 | 33.60905 | -72.72913 | 37088 ft | 604 kts | 31° |
| 2026-05-04 22:04 | 33.67895 | -72.67308 | 37089 ft | 605 kts | 30° |
| 2026-05-04 22:04 | 33.74853 | -72.61721 | 37091 ft | 605 kts | 31° |
| 2026-05-04 22:05 | 33.81812 | -72.56121 | 37093 ft | 606 kts | 31° |
| 2026-05-04 22:05 | 33.88802 | -72.50487 | 37095 ft | 606 kts | 31° |
| 2026-05-04 22:06 | 33.95765 | -72.44858 | 37096 ft | 606 kts | 31° |
| 2026-05-04 22:06 | 34.02721 | -72.39226 | 37098 ft | 606 kts | 31° |
| 2026-05-04 22:07 | 34.09677 | -72.33586 | 37089 ft | 606 kts | 31° |
| 2026-05-04 22:07 | 34.16657 | -72.27913 | 37075 ft | 606 kts | 31° |
| 2026-05-04 22:08 | 34.23611 | -72.22248 | 37076 ft | 606 kts | 31° |
| 2026-05-04 22:08 | 34.30562 | -72.16575 | 37077 ft | 606 kts | 31° |
| 2026-05-04 22:09 | 34.37535 | -72.10872 | 37079 ft | 606 kts | 31° |
| 2026-05-04 22:09 | 34.44479 | -72.05182 | 37081 ft | 606 kts | 31° |
| 2026-05-04 22:10 | 34.51417 | -71.99484 | 37082 ft | 605 kts | 31° |
| 2026-05-04 22:10 | 34.58397 | -71.93745 | 37087 ft | 612 kts | 32° |
| 2026-05-04 22:11 | 34.65434 | -71.87940 | 37086 ft | 613 kts | 32° |
| 2026-05-04 22:11 | 34.72448 | -71.82144 | 37087 ft | 614 kts | 32° |
| 2026-05-04 22:12 | 34.79480 | -71.76321 | 37090 ft | 615 kts | 31° |
| 2026-05-04 22:12 | 34.86540 | -71.70464 | 37092 ft | 615 kts | 31° |
| 2026-05-04 22:13 | 34.93577 | -71.64612 | 37095 ft | 616 kts | 31° |
| 2026-05-04 22:13 | 35.00620 | -71.58746 | 37097 ft | 617 kts | 31° |
| 2026-05-04 22:14 | 35.07668 | -71.52859 | 37098 ft | 618 kts | 31° |
| 2026-05-04 22:14 | 35.14739 | -71.46942 | 37083 ft | 617 kts | 31° |
| 2026-05-04 22:15 | 35.21789 | -71.41030 | 37087 ft | 618 kts | 31° |
| 2026-05-04 22:15 | 35.28840 | -71.35104 | 37089 ft | 619 kts | 31° |
| 2026-05-04 22:16 | 35.35921 | -71.29143 | 37076 ft | 619 kts | 32° |
| 2026-05-04 22:16 | 35.42980 | -71.23182 | 37072 ft | 620 kts | 32° |
| 2026-05-04 22:17 | 35.50046 | -71.17204 | 37065 ft | 621 kts | 32° |
| 2026-05-04 22:17 | 35.57118 | -71.11212 | 37063 ft | 622 kts | 32° |
| 2026-05-04 22:18 | 35.64236 | -71.05164 | 37064 ft | 624 kts | 32° |
| 2026-05-04 22:18 | 35.71335 | -70.99119 | 37067 ft | 626 kts | 32° |
| 2026-05-04 22:19 | 35.78458 | -70.93042 | 37070 ft | 628 kts | 32° |
| 2026-05-04 22:19 | 35.85632 | -70.86907 | 37071 ft | 630 kts | 32° |
| 2026-05-04 22:20 | 35.92802 | -70.80759 | 37056 ft | 632 kts | 32° |
| 2026-05-04 22:20 | 35.99992 | -70.74583 | 37039 ft | 634 kts | 33° |
| 2026-05-04 22:21 | 36.07159 | -70.68411 | 37031 ft | 631 kts | 33° |
| 2026-05-04 22:21 | 36.14351 | -70.62205 | 37014 ft | 633 kts | 33° |
| 2026-05-04 22:22 | 36.21536 | -70.55992 | 37019 ft | 634 kts | 33° |
| 2026-05-04 22:22 | 36.28729 | -70.49754 | 37022 ft | 636 kts | 33° |
| 2026-05-04 22:23 | 36.35959 | -70.43471 | 37024 ft | 637 kts | 33° |
| 2026-05-04 22:23 | 36.43167 | -70.37194 | 37026 ft | 637 kts | 33° |
| 2026-05-04 22:24 | 36.50367 | -70.30911 | 37011 ft | 636 kts | 33° |
| 2026-05-04 22:24 | 36.57556 | -70.24618 | 37012 ft | 635 kts | 33° |
| 2026-05-04 22:25 | 36.64755 | -70.18304 | 37010 ft | 634 kts | 33° |
| 2026-05-04 22:25 | 36.71909 | -70.12016 | 37011 ft | 633 kts | 33° |
| 2026-05-04 22:26 | 36.79042 | -70.05730 | 37014 ft | 631 kts | 33° |
| 2026-05-04 22:26 | 36.86182 | -69.99423 | 37013 ft | 630 kts | 33° |
| 2026-05-04 22:27 | 36.93360 | -69.93071 | 37020 ft | 638 kts | 33° |
| 2026-05-04 22:27 | 37.00554 | -69.86685 | 37014 ft | 637 kts | 33° |
| 2026-05-04 22:28 | 37.07727 | -69.80303 | 37014 ft | 636 kts | 33° |
| 2026-05-04 22:28 | 37.14915 | -69.73899 | 36995 ft | 634 kts | 32° |
| 2026-05-04 22:29 | 37.22051 | -69.67522 | 36995 ft | 633 kts | 33° |
| 2026-05-04 22:29 | 37.29169 | -69.61142 | 36993 ft | 632 kts | 32° |
| 2026-05-04 22:30 | 37.36300 | -69.54743 | 36995 ft | 631 kts | 32° |
| 2026-05-04 22:30 | 37.43393 | -69.48358 | 36998 ft | 631 kts | 32° |
| 2026-05-04 22:31 | 37.50481 | -69.41962 | 37000 ft | 630 kts | 32° |
| 2026-05-04 22:31 | 37.57567 | -69.35554 | 37003 ft | 631 kts | 32° |
| 2026-05-04 22:32 | 37.64687 | -69.29101 | 36988 ft | 632 kts | 33° |
| 2026-05-04 22:32 | 37.71785 | -69.22651 | 36990 ft | 633 kts | 33° |
| 2026-05-04 22:33 | 37.78895 | -69.16174 | 36992 ft | 634 kts | 33° |
| 2026-05-04 22:33 | 37.86044 | -69.09646 | 36986 ft | 636 kts | 33° |
| 2026-05-04 22:34 | 37.93184 | -69.03110 | 36981 ft | 638 kts | 33° |
| 2026-05-04 22:34 | 38.00341 | -68.96542 | 36982 ft | 640 kts | 33° |
| 2026-05-04 22:35 | 38.07423 | -68.90028 | 36980 ft | 631 kts | 32° |
| 2026-05-04 22:35 | 38.14518 | -68.83486 | 36967 ft | 632 kts | 32° |
| 2026-05-04 22:36 | 38.21596 | -68.76943 | 36971 ft | 634 kts | 32° |
| 2026-05-04 22:36 | 38.28688 | -68.70371 | 36975 ft | 635 kts | 32° |
| 2026-05-04 22:37 | 38.35815 | -68.63751 | 36977 ft | 636 kts | 32° |
| 2026-05-04 22:37 | 38.42924 | -68.57130 | 36980 ft | 637 kts | 32° |
| 2026-05-04 22:38 | 38.50036 | -68.50491 | 36982 ft | 637 kts | 32° |
| 2026-05-04 22:38 | 38.57143 | -68.43839 | 36984 ft | 637 kts | 32° |
| 2026-05-04 22:39 | 38.64267 | -68.37154 | 36986 ft | 636 kts | 32° |
| 2026-05-04 22:39 | 38.71350 | -68.30494 | 36968 ft | 635 kts | 33° |
| 2026-05-04 22:40 | 38.78414 | -68.23830 | 36973 ft | 633 kts | 33° |
| 2026-05-04 22:40 | 38.85484 | -68.17147 | 36975 ft | 632 kts | 33° |
| 2026-05-04 22:41 | 38.92502 | -68.10493 | 36976 ft | 630 kts | 33° |
| 2026-05-04 22:41 | 38.99491 | -68.03855 | 36972 ft | 627 kts | 33° |
| 2026-05-04 22:42 | 39.06470 | -67.97207 | 36958 ft | 633 kts | 33° |
| 2026-05-04 22:42 | 39.13532 | -67.90461 | 36948 ft | 633 kts | 33° |
| 2026-05-04 22:43 | 39.20543 | -67.83751 | 36952 ft | 630 kts | 33° |
| 2026-05-04 22:43 | 39.27526 | -67.77048 | 36954 ft | 629 kts | 33° |
| 2026-05-04 22:44 | 39.34511 | -67.70322 | 36957 ft | 627 kts | 33° |
| 2026-05-04 22:44 | 39.41451 | -67.63630 | 36958 ft | 626 kts | 33° |
| 2026-05-04 22:45 | 39.48376 | -67.56932 | 36961 ft | 625 kts | 33° |
| 2026-05-04 22:45 | 39.58775 | -67.46841 | 36964 ft | 625 kts | 33° |
| 2026-05-04 22:46 | 39.65686 | -67.40114 | 36966 ft | 625 kts | 33° |
| 2026-05-04 22:46 | 39.72595 | -67.33372 | 36957 ft | 625 kts | 33° |
| 2026-05-04 22:47 | 39.79512 | -67.26604 | 36954 ft | 626 kts | 33° |
| 2026-05-04 22:47 | 39.86458 | -67.19790 | 36956 ft | 627 kts | 33° |
| 2026-05-04 22:48 | 39.93390 | -67.12973 | 36956 ft | 629 kts | 33° |
| 2026-05-04 22:48 | 40.00331 | -67.06128 | 36956 ft | 630 kts | 33° |
| 2026-05-04 22:49 | 40.07214 | -66.99325 | 36950 ft | 619 kts | 33° |
| 2026-05-04 22:49 | 40.14037 | -66.92561 | 36940 ft | 619 kts | 33° |
| 2026-05-04 22:50 | 40.20863 | -66.85777 | 36942 ft | 621 kts | 33° |
| 2026-05-04 22:50 | 40.27697 | -66.78968 | 36940 ft | 621 kts | 33° |
| 2026-05-04 22:51 | 40.34574 | -66.72099 | 36939 ft | 622 kts | 33° |
| 2026-05-04 22:51 | 40.41419 | -66.65242 | 36941 ft | 623 kts | 33° |
| 2026-05-04 22:52 | 40.48265 | -66.58368 | 36942 ft | 623 kts | 33° |
| 2026-05-04 22:52 | 40.55133 | -66.51452 | 36945 ft | 623 kts | 33° |
| 2026-05-04 22:53 | 40.61972 | -66.44546 | 36947 ft | 623 kts | 33° |
| 2026-05-04 22:53 | 40.68795 | -66.37641 | 36945 ft | 622 kts | 33° |
| 2026-05-04 22:54 | 40.75601 | -66.30733 | 36920 ft | 621 kts | 34° |
| 2026-05-04 22:54 | 40.82414 | -66.23802 | 36918 ft | 619 kts | 34° |
| 2026-05-04 22:55 | 40.89183 | -66.16895 | 36908 ft | 617 kts | 34° |
| 2026-05-04 22:55 | 40.95925 | -66.09998 | 36894 ft | 615 kts | 34° |
| 2026-05-04 22:56 | 41.02667 | -66.03083 | 36880 ft | 614 kts | 34° |
| 2026-05-04 22:56 | 41.09380 | -65.96172 | 36868 ft | 618 kts | 34° |
| 2026-05-04 22:57 | 41.16128 | -65.89217 | 36860 ft | 617 kts | 34° |
| 2026-05-04 22:57 | 41.22849 | -65.82271 | 36862 ft | 615 kts | 34° |
| 2026-05-04 22:58 | 41.29574 | -65.75298 | 36864 ft | 614 kts | 34° |
| 2026-05-04 22:58 | 41.36253 | -65.68352 | 36866 ft | 612 kts | 34° |
| 2026-05-04 22:59 | 41.42912 | -65.61414 | 36868 ft | 611 kts | 34° |
| 2026-05-04 22:59 | 41.49583 | -65.54441 | 36870 ft | 611 kts | 34° |
| 2026-05-04 23:00 | 41.56223 | -65.47484 | 36871 ft | 610 kts | 34° |
| 2026-05-04 23:00 | 41.62853 | -65.40517 | 36873 ft | 610 kts | 34° |
| 2026-05-04 23:01 | 41.69482 | -65.33533 | 36865 ft | 611 kts | 34° |
| 2026-05-04 23:01 | 41.76140 | -65.26498 | 36862 ft | 611 kts | 34° |
| 2026-05-04 23:02 | 41.82777 | -65.19467 | 36864 ft | 612 kts | 34° |
| 2026-05-04 23:02 | 41.89422 | -65.12410 | 36866 ft | 613 kts | 34° |
| 2026-05-04 23:03 | 41.96095 | -65.05302 | 36866 ft | 614 kts | 34° |
| 2026-05-04 23:03 | 42.02731 | -64.98211 | 36871 ft | 606 kts | 34° |
| 2026-05-04 23:04 | 42.09262 | -64.91218 | 36856 ft | 603 kts | 34° |
| 2026-05-04 23:04 | 42.15787 | -64.84213 | 36845 ft | 604 kts | 34° |
| 2026-05-04 23:05 | 42.22340 | -64.77156 | 36844 ft | 605 kts | 34° |
| 2026-05-04 23:05 | 42.28872 | -64.70104 | 36847 ft | 605 kts | 34° |
| 2026-05-04 23:06 | 42.35403 | -64.63033 | 36848 ft | 605 kts | 34° |
| 2026-05-04 23:06 | 42.41961 | -64.55912 | 36850 ft | 606 kts | 34° |
| 2026-05-04 23:07 | 42.48493 | -64.48802 | 36852 ft | 606 kts | 34° |
| 2026-05-04 23:07 | 42.53957 | -64.42949 | 36837 ft | 602 kts | 30° |
| 2026-05-04 23:08 | 42.58894 | -64.39887 | 36849 ft | 580 kts | 8° |
| 2026-05-04 23:08 | 42.62798 | -64.38903 | 36865 ft | 569 kts | 359° |
| 2026-05-04 23:08 | 42.70633 | -64.37970 | 36856 ft | 567 kts | 357° |
| 2026-05-04 23:09 | 42.78438 | -64.37008 | 36856 ft | 567 kts | 357° |
| 2026-05-04 23:09 | 42.86239 | -64.36046 | 36856 ft | 566 kts | 357° |
| 2026-05-04 23:10 | 42.94056 | -64.35079 | 36857 ft | 566 kts | 357° |
| 2026-05-04 23:10 | 43.01842 | -64.34112 | 36844 ft | 564 kts | 358° |
| 2026-05-04 23:11 | 43.09607 | -64.33148 | 36837 ft | 564 kts | 358° |
| 2026-05-04 23:11 | 43.17299 | -64.32180 | 36788 ft | 545 kts | 358° |
| 2026-05-04 23:12 | 43.24741 | -64.31256 | 36805 ft | 535 kts | 358° |
| 2026-05-04 23:12 | 43.32099 | -64.30336 | 36812 ft | 533 kts | 358° |
| 2026-05-04 23:13 | 43.39432 | -64.29414 | 36812 ft | 532 kts | 358° |
| 2026-05-04 23:13 | 43.46814 | -64.28485 | 36183 ft | 537 kts | 359° |
| 2026-05-04 23:14 | 43.50504 | -64.28018 | 35555 ft | 536 kts | 358° |
| 2026-05-04 23:14 | 43.54176 | -64.27551 | 34927 ft | 532 kts | 358° |
| 2026-05-04 23:14 | 43.57811 | -64.27091 | 34293 ft | 525 kts | 358° |
| 2026-05-04 23:14 | 43.61408 | -64.26634 | 33659 ft | 519 kts | 358° |
| 2026-05-04 23:15 | 43.64953 | -64.26188 | 33026 ft | 513 kts | 358° |
| 2026-05-04 23:15 | 43.68460 | -64.25747 | 32396 ft | 507 kts | 358° |
| 2026-05-04 23:15 | 43.71957 | -64.25302 | 31680 ft | 503 kts | 358° |
| 2026-05-04 23:15 | 43.75398 | -64.24865 | 30927 ft | 498 kts | 358° |
| 2026-05-04 23:16 | 43.78809 | -64.24431 | 30176 ft | 494 kts | 358° |
| 2026-05-04 23:16 | 43.82183 | -64.24000 | 29427 ft | 489 kts | 358° |
| 2026-05-04 23:16 | 43.85530 | -64.23570 | 28679 ft | 485 kts | 358° |
| 2026-05-04 23:16 | 43.88848 | -64.23146 | 27931 ft | 481 kts | 358° |
| 2026-05-04 23:17 | 43.92135 | -64.22725 | 27183 ft | 476 kts | 358° |
| 2026-05-04 23:17 | 43.95420 | -64.22306 | 26430 ft | 472 kts | 358° |
| 2026-05-04 23:17 | 43.98647 | -64.21891 | 25731 ft | 467 kts | 358° |
| 2026-05-04 23:17 | 44.01833 | -64.21482 | 25108 ft | 460 kts | 358° |
| 2026-05-04 23:18 | 44.04972 | -64.21077 | 24480 ft | 453 kts | 358° |
| 2026-05-04 23:18 | 44.08071 | -64.20678 | 23851 ft | 447 kts | 358° |
| 2026-05-04 23:18 | 44.11126 | -64.20286 | 23222 ft | 441 kts | 358° |
| 2026-05-04 23:18 | 44.14139 | -64.19899 | 22591 ft | 435 kts | 358° |
| 2026-05-04 23:19 | 44.17138 | -64.19513 | 21955 ft | 430 kts | 358° |
| 2026-05-04 23:19 | 44.20077 | -64.19133 | 21326 ft | 425 kts | 358° |
| 2026-05-04 23:19 | 44.22983 | -64.18758 | 20696 ft | 420 kts | 358° |
| 2026-05-04 23:19 | 44.25852 | -64.18120 | 20036 ft | 424 kts | 11° |
| 2026-05-04 23:20 | 44.28491 | -64.16254 | 19406 ft | 431 kts | 29° |
| 2026-05-04 23:20 | 44.30838 | -64.13683 | 18795 ft | 430 kts | 36° |
| 2026-05-04 23:20 | 44.33042 | -64.10925 | 18172 ft | 426 kts | 38° |
| 2026-05-04 23:20 | 44.35227 | -64.08139 | 17542 ft | 422 kts | 38° |
| 2026-05-04 23:21 | 44.37375 | -64.05395 | 16917 ft | 418 kts | 37° |
| 2026-05-04 23:21 | 44.39505 | -64.02677 | 16291 ft | 415 kts | 37° |
| 2026-05-04 23:21 | 44.41620 | -63.99977 | 15665 ft | 411 kts | 37° |
| 2026-05-04 23:21 | 44.43707 | -63.97307 | 15043 ft | 407 kts | 37° |
| 2026-05-04 23:22 | 44.45770 | -63.94665 | 14380 ft | 394 kts | 36° |
| 2026-05-04 23:22 | 44.47673 | -63.92208 | 13864 ft | 362 kts | 36° |
| 2026-05-04 23:22 | 44.49514 | -63.89856 | 13526 ft | 353 kts | 35° |
| 2026-05-04 23:22 | 44.51315 | -63.87564 | 13146 ft | 350 kts | 35° |
| 2026-05-04 23:23 | 44.53099 | -63.85271 | 12773 ft | 348 kts | 35° |
| 2026-05-04 23:23 | 44.54789 | -63.83097 | 12416 ft | 344 kts | 35° |
| 2026-05-04 23:23 | 44.56338 | -63.81103 | 12078 ft | 339 kts | 35° |
| 2026-05-04 23:23 | 44.58053 | -63.78896 | 11699 ft | 333 kts | 34° |
| 2026-05-04 23:24 | 44.59740 | -63.76723 | 11319 ft | 328 kts | 34° |
| 2026-05-04 23:24 | 44.61414 | -63.74568 | 10939 ft | 324 kts | 35° |
| 2026-05-04 23:24 | 44.63045 | -63.72460 | 10662 ft | 315 kts | 35° |
| 2026-05-04 23:24 | 44.64632 | -63.70407 | 10400 ft | 307 kts | 34° |
| 2026-05-04 23:25 | 44.66179 | -63.68409 | 10138 ft | 300 kts | 34° |
| 2026-05-04 23:25 | 44.67687 | -63.66456 | 9876 ft | 293 kts | 34° |
| 2026-05-04 23:25 | 44.69170 | -63.64540 | 9618 ft | 290 kts | 34° |
| 2026-05-04 23:25 | 44.70647 | -63.62629 | 9370 ft | 290 kts | 34° |
| 2026-05-04 23:26 | 44.72130 | -63.60708 | 9003 ft | 288 kts | 35° |
| 2026-05-04 23:26 | 44.73590 | -63.58812 | 8632 ft | 287 kts | 35° |
| 2026-05-04 23:26 | 44.75044 | -63.56925 | 8263 ft | 285 kts | 35° |
| 2026-05-04 23:26 | 44.76487 | -63.55048 | 7896 ft | 283 kts | 35° |
| 2026-05-04 23:27 | 44.77921 | -63.53180 | 7527 ft | 282 kts | 36° |
| 2026-05-04 23:27 | 44.79348 | -63.51319 | 7160 ft | 280 kts | 36° |
| 2026-05-04 23:27 | 44.80766 | -63.49468 | 6791 ft | 279 kts | 36° |
| 2026-05-04 23:27 | 44.82185 | -63.47610 | 6496 ft | 273 kts | 36° |
| 2026-05-04 23:28 | 44.83546 | -63.45818 | 6190 ft | 267 kts | 36° |
| 2026-05-04 23:28 | 44.84891 | -63.44040 | 5810 ft | 264 kts | 36° |
| 2026-05-04 23:28 | 44.86214 | -63.42286 | 5455 ft | 261 kts | 36° |
| 2026-05-04 23:28 | 44.87515 | -63.40553 | 5130 ft | 256 kts | 36° |
| 2026-05-04 23:29 | 44.88791 | -63.38847 | 4824 ft | 250 kts | 37° |
| 2026-05-04 23:29 | 44.90039 | -63.37170 | 4718 ft | 250 kts | 37° |
| 2026-05-04 23:29 | 44.91305 | -63.35471 | 4478 ft | 250 kts | 37° |
| 2026-05-04 23:29 | 44.92560 | -63.33786 | 4227 ft | 250 kts | 38° |
| 2026-05-04 23:30 | 44.93811 | -63.32106 | 4006 ft | 248 kts | 38° |
| 2026-05-04 23:30 | 44.95054 | -63.30438 | 3998 ft | 247 kts | 37° |
| 2026-05-04 23:30 | 44.96491 | -63.29295 | 3772 ft | 232 kts | 4° |
| 2026-05-04 23:30 | 44.97960 | -63.29578 | 3523 ft | 206 kts | 323° |
| 2026-05-04 23:31 | 44.99029 | -63.30820 | 3355 ft | 199 kts | 308° |
| 2026-05-04 23:31 | 44.99943 | -63.32276 | 3147 ft | 194 kts | 298° |
| 2026-05-04 23:31 | 45.00248 | -63.34024 | 2965 ft | 184 kts | 266° |
| 2026-05-04 23:31 | 45.00073 | -63.35776 | 2815 ft | 175 kts | 260° |
| 2026-05-04 23:32 | 44.99882 | -63.37406 | 2566 ft | 165 kts | 261° |
| 2026-05-04 23:32 | 44.99702 | -63.38964 | 2328 ft | 156 kts | 258° |
| 2026-05-04 23:32 | 44.99182 | -63.40221 | 2087 ft | 146 kts | 226° |
| 2026-05-04 23:32 | 44.98379 | -63.41002 | 1981 ft | 140 kts | 220° |
| 2026-05-04 23:33 | 44.97587 | -63.41797 | 2009 ft | 139 kts | 223° |
| 2026-05-04 23:33 | 44.96807 | -63.42587 | 1990 ft | 133 kts | 222° |
| 2026-05-04 23:33 | 44.96068 | -63.43312 | 1967 ft | 129 kts | 222° |
| 2026-05-04 23:33 | 44.95336 | -63.44045 | 2008 ft | 130 kts | 222° |
| 2026-05-04 23:34 | 44.94593 | -63.44785 | 1871 ft | 132 kts | 222° |
| 2026-05-04 23:34 | 44.93830 | -63.45547 | 1702 ft | 136 kts | 219° |
| 2026-05-04 23:34 | 44.93077 | -63.46286 | 1515 ft | 132 kts | 220° |
| 2026-05-04 23:34 | 44.92325 | -63.47031 | 1349 ft | 132 kts | 220° |
| 2026-05-04 23:35 | 44.91579 | -63.47768 | 1180 ft | 132 kts | 220° |
| 2026-05-04 23:35 | 44.90832 | -63.48503 | 1007 ft | 132 kts | 220° |
| 2026-05-04 23:35 | 44.90089 | -63.49244 | 829 ft | 131 kts | 220° |
| 2026-05-04 23:35 | 44.89350 | -63.49977 | 660 ft | 130 kts | 219° |
| 2026-05-04 23:36 | 44.88618 | -63.50695 | 519 ft | 127 kts | 219° |
| 2026-05-04 23:36 | 44.87952 | -63.51358 | 493 ft | 98 kts | 216° |
| 2026-05-04 23:36 | 44.87594 | -63.51716 | 493 ft | 35 kts | 217° |
| 2026-05-04 23:36 | 44.87468 | -63.51891 | 493 ft | 18 kts | 248° |
| 2026-05-04 23:37 | 44.87454 | -63.52024 | 493 ft | 12 kts | 278° |
| 2026-05-04 23:37 | 44.87482 | -63.52106 | 493 ft | 7 kts | 317° |
| 2026-05-04 23:37 | 44.87526 | -63.52114 | 493 ft | 7 kts | 15° |
| 2026-05-04 23:37 | 44.87575 | -63.52070 | 493 ft | 10 kts | 36° |
| 2026-05-04 23:38 | 44.87638 | -63.52008 | 493 ft | 12 kts | 36° |
| 2026-05-04 23:38 | 44.87715 | -63.51931 | 493 ft | 15 kts | 35° |
| 2026-05-04 23:38 | 44.87805 | -63.51843 | 493 ft | 16 kts | 35° |
| 2026-05-04 23:38 | 44.87901 | -63.51750 | 493 ft | 17 kts | 34° |
| 2026-05-04 23:39 | 44.88001 | -63.51654 | 493 ft | 18 kts | 36° |
| 2026-05-04 23:39 | 44.88098 | -63.51557 | 493 ft | 17 kts | 35° |
| 2026-05-04 23:39 | 44.88189 | -63.51466 | 493 ft | 16 kts | 36° |
| 2026-05-04 23:39 | 44.88269 | -63.51399 | 493 ft | 11 kts | 8° |
| 2026-05-04 23:40 | 44.88308 | -63.51424 | 493 ft | 4 kts | 311° |
| 2026-05-04 23:40 | 44.88318 | -63.51443 | 493 ft | 2 kts | 307° |
| 2026-05-04 23:40 | 44.88324 | -63.51455 | 493 ft | 1 kts | 307° |
| 2026-05-04 23:40 | 44.88334 | -63.51474 | 493 ft | 3 kts | 307° |
| 2026-05-04 23:41 | 44.88338 | -63.51482 | 493 ft | 0 kts | 307° |